createdAt,value
2022-12-05T10:28:54.608Z,43.03
2022-12-05T10:34:07.223Z,43.90
2022-12-05T10:39:11.765Z,48.50
2022-12-05T10:44:17.757Z,49.87
2022-12-05T10:49:51.566Z,50.55
2022-12-05T10:55:05.527Z,48.58
2022-12-05T11:00:18.177Z,52.28
2022-12-05T11:05:30.359Z,53.95
2022-12-05T11:10:37.808Z,53.03
2022-12-05T11:15:53.784Z,53.67
2022-12-05T11:21:10.371Z,54.65
2022-12-05T11:26:35.983Z,58.22
2022-12-05T11:44:54.583Z,58.22
2022-12-05T11:50:17.717Z,63.33
2022-12-05T11:55:26.810Z,64.07
2022-12-05T12:07:15.655Z,54.95
2022-12-05T12:12:42.017Z,53.50
2022-12-05T12:18:53.720Z,56.30
2022-12-05T12:24:30.854Z,59.38
2022-12-05T12:30:01.274Z,63.60
2022-12-05T12:35:25.028Z,50.60
2022-12-05T12:40:37.136Z,59.10
2022-12-05T12:46:23.157Z,59.03
2022-12-05T12:51:28.463Z,60.42
2022-12-05T12:56:41.025Z,56.47
2022-12-05T13:01:54.361Z,54.72
2022-12-05T13:07:04.190Z,60.08
2022-12-05T13:12:35.853Z,53.75
2022-12-05T13:17:58.700Z,56.10
2022-12-05T13:23:18.360Z,59.38
2022-12-05T13:28:30.158Z,60.72
2022-12-05T13:33:44.986Z,55.17
2022-12-05T13:39:15.782Z,58.30
2022-12-05T13:44:34.928Z,64.40
2022-12-05T13:49:48.213Z,60.63
2022-12-05T13:56:02.296Z,60.97
2022-12-05T14:01:56.043Z,63.60
2022-12-05T14:07:02.096Z,61.70
2022-12-05T14:13:00.458Z,68.15
2022-12-05T14:18:15.986Z,63.33
2022-12-05T14:23:45.457Z,66.07
2022-12-05T14:35:22.226Z,70.68
2022-12-05T14:40:44.862Z,74.00
2022-12-05T14:51:57.530Z,78.35
2022-12-05T14:57:12.971Z,82.00
2022-12-05T15:02:24.521Z,84.00
2022-12-05T15:07:34.929Z,83.60
2022-12-05T15:13:18.943Z,79.47
2022-12-05T15:18:42.177Z,89.35
2022-12-05T15:23:51.355Z,93.88
2022-12-05T15:29:04.077Z,84.88
2022-12-05T15:34:20.399Z,92.78
2022-12-05T15:39:29.329Z,93.53
2022-12-05T15:44:38.189Z,93.57
2022-12-05T15:49:45.608Z,95.43
2022-12-05T15:54:51.450Z,98.55
2022-12-05T16:00:16.917Z,103.28
2022-12-05T16:05:32.862Z,95.93
2022-12-05T16:10:37.192Z,86.82
2022-12-05T16:15:50.825Z,93.90
2022-12-05T16:27:31.688Z,101.85
2022-12-05T16:33:03.261Z,97.30
2022-12-05T16:38:38.554Z,94.50
2022-12-05T16:43:59.499Z,96.07
2022-12-05T16:49:45.857Z,104.95
2022-12-05T16:55:04.313Z,100.40
2022-12-05T17:00:15.440Z,98.53
2022-12-05T17:05:24.815Z,104.95
2022-12-05T17:10:30.435Z,105.43
2022-12-05T17:15:36.430Z,99.18
2022-12-05T17:20:43.326Z,101.45
2022-12-05T17:25:52.188Z,93.82
2022-12-05T17:31:17.665Z,98.00
2022-12-05T17:48:38.288Z,97.82
2022-12-05T17:53:45.849Z,95.75
2022-12-05T17:58:52.991Z,96.55
2022-12-05T18:04:07.237Z,97.05
2022-12-05T18:23:00.179Z,100.90
2022-12-05T18:33:24.679Z,95.45
2022-12-05T18:39:02.566Z,99.38
2022-12-05T18:49:44.139Z,113.72
2022-12-05T18:54:57.671Z,104.33
2022-12-05T19:00:16.400Z,109.25
2022-12-05T19:24:15.907Z,80.50
2022-12-05T19:29:39.944Z,64.03
2022-12-05T19:34:48.485Z,64.28
2022-12-05T19:39:52.600Z,64.25
2022-12-05T19:44:56.345Z,61.95
2022-12-05T19:50:01.983Z,55.67
2022-12-05T19:55:07.335Z,65.43
2022-12-05T20:00:17.231Z,61.95
2022-12-05T20:05:25.744Z,66.32
2022-12-05T20:10:41.377Z,66.88
2022-12-05T20:15:48.249Z,66.55
2022-12-05T20:21:04.034Z,53.90
2022-12-05T20:26:10.861Z,70.53
2022-12-05T20:31:17.160Z,57.53
2022-12-05T20:36:25.833Z,62.28
2022-12-05T20:41:33.737Z,62.58
2022-12-05T20:46:38.038Z,68.22
2022-12-05T20:51:45.886Z,65.20
2022-12-05T21:03:12.938Z,78.60
2022-12-05T21:08:28.448Z,68.60
2022-12-05T21:13:35.868Z,68.47
2022-12-05T21:18:41.319Z,60.63
2022-12-05T21:23:49.893Z,67.13
2022-12-05T21:34:23.188Z,66.47
2022-12-05T21:39:52.395Z,72.65
2022-12-05T21:44:59.254Z,67.65
2022-12-05T21:50:07.900Z,61.10
2022-12-05T21:55:19.643Z,65.63
2022-12-05T22:00:23.622Z,57.88
2022-12-05T22:05:27.561Z,61.05
2022-12-05T22:10:54.332Z,60.40
